Time;durP1;ratioP1;P1;durP2;ratioP2;P2;SDS_P1;SDS_P2;PMS_P1;PMS_P2;Temp;Humidity;BMP_temperature;BMP_pressure;BME280_temperature;BME280_humidity;BME280_pressure;Samples;Min_cycle;Max_cycle;Signal;HPM_P1;HPM_P2
2021/04/23 00:00:38;;;;;;;7.68;5.57;;;14.50;63.10;14.50;99864.00;;;;339083;28;85247;-89
2021/04/23 00:00:58;;;;;;;6.45;4.95;;;14.50;63.20;14.50;99862.00;;;;340857;28;98145;-90
2021/04/23 00:01:15;;;;;;;5.82;5.05;;;14.50;63.30;14.50;99864.00;;;;340363;28;83296;-89
2021/04/23 00:01:26;;;;;;;6.55;5.13;;;14.50;63.30;14.60;99869.00;;;;339731;28;94300;-89
2021/04/23 00:01:38;;;;;;;8.20;5.40;;;14.50;63.20;14.50;99859.00;;;;341640;28;83401;-89
2021/04/23 00:01:49;;;;;;;7.75;5.38;;;14.50;63.20;14.60;99864.00;;;;339522;28;96233;-89
2021/04/23 00:02:01;;;;;;;7.55;5.45;;;14.50;63.10;14.60;99863.00;;;;341487;28;83436;-89
2021/04/23 00:02:12;;;;;;;6.82;5.18;;;14.50;63.10;14.50;99864.00;;;;343285;28;95806;-89
2021/04/23 00:02:23;;;;;;;6.88;5.20;;;14.50;63.00;14.50;99862.00;;;;344171;28;83601;-89
2021/04/23 00:02:35;;;;;;;6.60;5.32;;;14.50;62.90;14.60;99867.00;;;;339805;28;94083;-89
2021/04/23 00:02:46;;;;;;;6.20;5.18;;;14.50;62.90;14.60;99861.00;;;;341657;28;83902;-89
2021/04/23 00:03:00;;;;;;;5.88;5.03;;;14.50;63.00;14.60;99867.00;;;;340892;28;96660;-89
2021/04/23 00:03:23;;;;;;;7.03;5.20;;;14.50;63.00;14.60;99866.00;;;;343055;28;85729;-90
2021/04/23 00:03:50;;;;;;;7.85;6.00;;;14.50;62.90;14.50;99867.00;;;;342073;28;95270;-90
2021/04/23 00:04:04;;;;;;;7.50;5.10;;;14.50;63.00;14.40;99866.00;;;;342109;28;83576;-89
2021/04/23 00:04:15;;;;;;;7.05;5.13;;;14.50;63.00;14.50;99871.00;;;;343954;28;96275;-89
2021/04/23 00:04:27;;;;;;;6.10;5.13;;;14.50;63.00;14.50;99858.00;;;;340714;28;83689;-90
2021/04/23 00:04:38;;;;;;;6.22;5.05;;;14.50;62.90;14.50;99868.00;;;;339945;28;96673;-89
2021/04/23 00:04:49;;;;;;;5.97;5.13;;;14.50;63.10;14.50;99861.00;;;;341847;28;83774;-89
2021/04/23 00:05:01;;;;;;;5.63;5.05;;;14.50;63.20;14.60;99862.00;;;;342062;28;96797;-89
2021/04/23 00:05:14;;;;;;;6.65;5.25;;;14.50;63.10;14.60;99862.00;;;;340648;28;83583;-89
2021/04/23 00:05:25;;;;;;;6.82;5.05;;;14.50;63.10;14.70;99867.00;;;;343016;28;95222;-89
2021/04/23 00:05:37;;;;;;;6.47;4.90;;;14.50;63.10;14.70;99854.00;;;;339315;28;83430;-90
2021/04/23 00:05:51;;;;;;;6.53;5.15;;;14.50;63.20;14.60;99869.00;;;;341444;28;95949;-89
2021/04/23 00:06:22;;;;;;;8.15;5.30;;;14.50;63.10;14.50;99869.00;;;;340782;28;84241;-90
2021/04/23 00:06:41;;;;;;;6.68;4.85;;;14.50;62.90;14.50;99861.00;;;;337385;28;95685;-89
2021/04/23 00:06:55;;;;;;;7.55;5.40;;;14.50;62.90;14.50;99864.00;;;;340533;28;83719;-89
2021/04/23 00:07:07;;;;;;;6.60;4.97;;;14.50;62.80;14.50;99861.00;;;;340123;28;94460;-89
2021/04/23 00:07:18;;;;;;;6.22;4.72;;;14.50;62.80;14.50;99862.00;;;;339479;28;83761;-89
2021/04/23 00:07:29;;;;;;;7.97;5.63;;;14.50;62.80;14.60;99859.00;;;;338709;28;92861;-89
2021/04/23 00:07:41;;;;;;;8.40;5.72;;;14.50;62.80;14.50;99866.00;;;;340713;28;82838;-89
2021/04/23 00:07:52;;;;;;;7.40;5.47;;;14.50;62.90;14.50;99860.00;;;;338731;28;96786;-90
2021/04/23 00:08:03;;;;;;;5.95;4.82;;;14.50;62.90;14.60;99862.00;;;;339196;28;83690;-89
2021/04/23 00:08:16;;;;;;;6.97;5.15;;;14.50;62.90;14.60;99861.00;;;;338667;28;95753;-89
2021/04/23 00:08:27;;;;;;;9.30;5.88;;;14.50;63.10;14.50;99863.00;;;;341778;28;84940;-89
2021/04/23 00:08:44;;;;;;;8.90;5.85;;;14.50;63.10;14.50;99865.00;;;;339989;28;94307;-89
2021/04/23 00:09:00;;;;;;;7.48;5.26;;;14.50;63.10;14.40;99870.00;;;;342462;28;85122;-89
2021/04/23 00:09:19;;;;;;;6.35;4.95;;;14.50;63.00;14.50;99864.00;;;;339839;28;95942;-90
2021/04/23 00:09:32;;;;;;;6.45;4.93;;;14.50;63.10;14.50;99864.00;;;;341847;28;83745;-89
2021/04/23 00:09:44;;;;;;;7.55;5.43;;;14.50;63.10;14.50;99861.00;;;;338524;28;96420;-89
2021/04/23 00:09:55;;;;;;;8.57;5.85;;;14.50;62.90;14.60;99864.00;;;;343304;28;83454;-89
2021/04/23 00:10:12;;;;;;;7.95;5.80;;;14.50;62.90;14.50;99859.00;;;;341072;28;95363;-89
2021/04/23 00:10:24;;;;;;;6.22;5.22;;;14.50;62.90;14.60;99864.00;;;;343191;28;83721;-90
2021/04/23 00:10:36;;;;;;;6.85;5.45;;;14.50;62.90;14.60;99863.00;;;;341081;28;97209;-89
2021/04/23 00:10:47;;;;;;;7.25;5.13;;;14.50;62.90;14.60;99861.00;;;;343068;28;82577;-89
2021/04/23 00:11:02;;;;;;;6.45;5.10;;;14.50;62.90;14.60;99860.00;;;;339645;28;94206;-89
2021/04/23 00:11:14;;;;;;;5.70;5.07;;;14.50;62.90;14.60;99862.00;;;;341649;28;84726;-89
2021/04/23 00:11:50;;;;;;;6.30;5.13;;;14.50;62.90;14.60;99861.00;;;;340530;28;92917;-90
2021/04/23 00:12:11;;;;;;;7.97;5.10;;;14.50;63.10;14.60;99864.00;;;;340443;28;82327;-89
2021/04/23 00:12:22;;;;;;;7.63;4.93;;;14.50;62.90;14.60;99866.00;;;;338221;28;94588;-90
2021/04/23 00:12:34;;;;;;;7.10;5.00;;;14.50;63.60;14.60;99871.00;;;;343039;28;83459;-89
2021/04/23 00:12:45;;;;;;;6.30;4.93;;;14.50;62.90;14.60;99862.00;;;;339574;28;98213;-89
2021/04/23 00:12:57;;;;;;;6.28;5.03;;;14.50;62.80;14.40;99866.00;;;;341745;28;83450;-89
2021/04/23 00:13:08;;;;;;;5.78;4.65;;;14.50;62.80;14.50;99864.00;;;;341004;28;97132;-89
2021/04/23 00:13:20;;;;;;;5.53;4.60;;;14.50;62.80;14.60;99860.00;;;;340352;28;84927;-89
2021/04/23 00:13:31;;;;;;;5.43;4.65;;;14.50;62.90;14.60;99864.00;;;;339608;28;96605;-89
2021/04/23 00:13:43;;;;;;;5.60;4.80;;;14.50;62.80;14.60;99860.00;;;;341619;28;84702;-90
2021/04/23 00:13:54;;;;;;;6.80;4.95;;;14.50;62.80;14.50;99863.00;;;;341996;28;94604;-89
2021/04/23 00:14:06;;;;;;;6.82;4.95;;;14.60;62.70;14.60;99858.00;;;;343036;28;82360;-89
2021/04/23 00:14:20;;;;;;;6.32;4.60;;;14.50;62.60;14.60;99860.00;;;;342461;28;94140;-89
2021/04/23 00:14:39;;;;;;;6.65;4.43;;;14.50;62.60;14.50;99869.00;;;;341816;28;83277;-89
2021/04/23 00:14:51;;;;;;;6.40;5.10;;;14.50;62.60;14.50;99864.00;;;;342058;28;97177;-89
2021/04/23 00:15:04;;;;;;;6.00;5.30;;;14.50;62.70;14.50;99862.00;;;;340331;28;83668;-89
2021/04/23 00:15:18;;;;;;;5.05;4.55;;;14.50;62.70;14.60;99862.00;;;;339681;28;97023;-89
2021/04/23 00:15:31;;;;;;;5.50;4.40;;;14.50;62.70;14.50;99866.00;;;;341711;28;83948;-90
2021/04/23 00:15:43;;;;;;;6.43;4.47;;;14.50;62.80;14.60;99869.00;;;;338286;28;96951;-89
2021/04/23 00:15:55;;;;;;;7.13;4.38;;;14.50;62.70;14.60;99864.00;;;;338999;28;83581;-89
2021/04/23 00:16:08;;;;;;;6.70;4.30;;;14.50;62.90;14.60;99872.00;;;;339415;28;96218;-89
2021/04/23 00:16:19;;;;;;;5.50;4.25;;;14.50;62.80;14.60;99862.00;;;;341725;28;84783;-89
2021/04/23 00:16:31;;;;;;;5.68;4.32;;;14.50;62.60;14.60;99866.00;;;;340981;28;96062;-89
2021/04/23 00:16:42;;;;;;;5.82;4.57;;;14.60;62.60;14.60;99867.00;;;;341678;28;83452;-89
2021/04/23 00:16:54;;;;;;;6.32;4.63;;;14.60;62.60;14.70;99861.00;;;;339367;28;97976;-89
2021/04/23 00:17:06;;;;;;;6.57;4.38;;;14.60;62.50;14.70;99872.00;;;;340372;28;82714;-89
2021/04/23 00:17:18;;;;;;;7.65;4.30;;;14.60;62.60;14.70;99870.00;;;;340960;28;96755;-90
2021/04/23 00:17:29;;;;;;;7.72;4.60;;;14.60;62.60;14.70;99867.00;;;;341569;28;83833;-89
2021/04/23 00:17:41;;;;;;;8.80;5.00;;;14.60;62.60;14.60;99868.00;;;;339507;28;94842;-89
2021/04/23 00:17:54;;;;;;;8.25;4.90;;;14.60;62.50;14.50;99869.00;;;;341780;28;83249;-89
2021/04/23 00:18:05;;;;;;;7.82;4.97;;;14.60;62.50;14.60;99870.00;;;;339600;28;96355;-89
2021/04/23 00:18:17;;;;;;;7.45;4.90;;;14.60;62.50;14.70;99869.00;;;;341660;28;84822;-89
2021/04/23 00:18:29;;;;;;;8.50;4.80;;;14.60;62.50;14.50;99869.00;;;;339619;28;96017;-90
2021/04/23 00:18:40;;;;;;;7.15;4.60;;;14.60;62.70;14.60;99879.00;;;;340356;28;84707;-91
2021/04/23 00:18:53;;;;;;;5.72;4.40;;;14.60;62.50;14.60;99867.00;;;;339537;28;97124;-90
2021/04/23 00:19:07;;;;;;;6.45;4.57;;;14.60;62.40;14.50;99877.00;;;;340365;28;84793;-89
2021/04/23 00:19:22;;;;;;;8.05;4.75;;;14.60;62.40;14.60;99873.00;;;;339675;28;95686;-89
2021/04/23 00:19:33;;;;;;;6.95;4.65;;;14.60;62.50;14.60;99861.00;;;;340294;28;83478;-89
2021/04/23 00:19:46;;;;;;;7.53;4.72;;;14.60;62.60;14.50;99870.00;;;;338230;28;97105;-89
2021/04/23 00:19:57;;;;;;;7.63;4.80;;;14.60;62.40;14.50;99874.00;;;;341287;28;83619;-90
2021/04/23 00:20:23;;;;;;;6.75;4.97;;;14.60;62.30;14.20;99867.00;;;;339559;28;93312;-90
2021/04/23 00:20:36;;;;;;;9.15;5.05;;;14.50;62.10;14.40;99873.00;;;;340313;28;83607;-89
2021/04/23 00:20:49;;;;;;;7.88;4.65;;;14.50;62.20;14.50;99873.00;;;;339271;28;96029;-89
2021/04/23 00:21:00;;;;;;;6.00;4.47;;;14.50;62.40;14.30;99876.00;;;;341490;28;84752;-89
2021/04/23 00:21:12;;;;;;;6.55;4.45;;;14.50;62.40;14.40;99879.00;;;;339622;28;97673;-90
2021/04/23 00:21:23;;;;;;;6.15;4.68;;;14.50;62.40;14.40;99874.00;;;;341592;28;83369;-89
2021/04/23 00:21:35;;;;;;;6.90;5.05;;;14.50;62.30;14.40;99870.00;;;;341058;28;93240;-89
2021/04/23 00:21:46;;;;;;;5.93;5.07;;;14.50;62.20;14.40;99874.00;;;;341619;28;83540;-89
2021/04/23 00:21:58;;;;;;;6.80;4.85;;;14.50;62.10;14.40;99875.00;;;;339598;28;96830;-90
2021/04/23 00:22:09;;;;;;;7.35;4.45;;;14.50;62.10;14.40;99868.00;;;;341820;28;83431;-89
2021/04/23 00:22:21;;;;;;;7.13;4.22;;;14.50;62.20;14.40;99875.00;;;;340960;28;96754;-89
2021/04/23 00:22:32;;;;;;;7.40;4.47;;;14.50;62.20;14.40;99873.00;;;;340427;28;83361;-89
2021/04/23 00:22:44;;;;;;;7.40;4.70;;;14.50;62.30;14.40;99869.00;;;;341094;28;94350;-89
2021/04/23 00:22:56;;;;;;;8.27;5.03;;;14.50;62.20;14.30;99872.00;;;;339149;28;83705;-89
2021/04/23 00:23:08;;;;;;;7.66;4.88;;;14.40;62.30;14.20;99874.00;;;;338787;28;98348;-89
2021/04/23 00:23:20;;;;;;;10.90;4.57;;;14.40;62.30;14.30;99871.00;;;;340168;28;83797;-89
2021/04/23 00:23:32;;;;;;;10.88;4.45;;;14.40;62.30;14.20;99862.00;;;;339547;28;96880;-89
2021/04/23 00:23:45;;;;;;;6.32;4.50;;;14.40;62.50;14.20;99878.00;;;;340426;28;84748;-89
2021/04/23 00:23:58;;;;;;;6.03;4.63;;;14.40;62.40;14.10;99876.00;;;;341938;28;95738;-89
2021/04/23 00:24:10;;;;;;;6.35;4.55;;;14.40;62.30;14.00;99870.00;;;;338913;28;85131;-89
2021/04/23 00:24:21;;;;;;;6.10;4.45;;;14.30;62.40;14.20;99874.00;;;;342290;28;96801;-88
2021/04/23 00:24:33;;;;;;;5.85;4.53;;;14.30;62.40;14.20;99868.00;;;;344206;28;83566;-89
2021/04/23 00:24:45;;;;;;;7.50;4.53;;;14.30;62.50;14.10;99871.00;;;;341004;28;97147;-89
2021/04/23 00:24:56;;;;;;;7.13;4.38;;;14.30;62.60;14.20;99874.00;;;;342896;28;84137;-89
2021/04/23 00:25:09;;;;;;;5.03;3.95;;;14.30;62.60;14.20;99873.00;;;;340965;28;97695;-89
2021/04/23 00:25:26;;;;;;;5.68;3.78;;;14.30;62.60;14.30;99864.00;;;;341772;28;83373;-89
2021/04/23 00:25:41;;;;;;;6.63;4.40;;;14.30;62.70;14.20;99871.00;;;;340944;28;96196;-89
2021/04/23 00:25:53;;;;;;;8.63;4.55;;;14.30;62.70;14.30;99863.00;;;;342343;28;84287;-89
2021/04/23 00:26:06;;;;;;;9.63;4.45;;;14.30;62.70;14.30;99862.00;;;;341749;28;96255;-89
2021/04/23 00:26:17;;;;;;;9.85;4.50;;;14.20;62.80;14.20;99868.00;;;;337589;28;83735;-89
2021/04/23 00:26:29;;;;;;;6.82;4.68;;;14.20;62.90;14.30;99866.00;;;;340864;28;95751;-90
2021/04/23 00:26:41;;;;;;;5.78;4.43;;;14.30;63.10;14.30;99868.00;;;;340109;28;84575;-89
2021/04/23 00:26:53;;;;;;;5.40;4.60;;;14.30;63.00;14.30;99867.00;;;;339122;28;94113;-89
2021/04/23 00:27:06;;;;;;;5.50;4.40;;;14.20;62.90;14.30;99868.00;;;;341674;28;83750;-89
2021/04/23 00:27:17;;;;;;;5.13;4.20;;;14.30;62.90;14.30;99866.00;;;;339574;28;98263;-90
2021/04/23 00:27:28;;;;;;;5.63;4.18;;;14.30;62.80;14.40;99874.00;;;;341590;28;84708;-89
2021/04/23 00:27:43;;;;;;;7.80;4.38;;;14.30;62.80;14.30;99870.00;;;;339629;28;96889;-89
2021/04/23 00:28:00;;;;;;;7.93;4.55;;;14.20;62.90;14.40;99871.00;;;;341635;28;83687;-89
2021/04/23 00:28:13;;;;;;;7.57;4.88;;;14.20;63.00;14.40;99874.00;;;;338124;28;98454;-89
2021/04/23 00:28:24;;;;;;;7.03;4.72;;;14.20;62.90;14.40;99865.00;;;;340342;28;83721;-90
2021/04/23 00:28:36;;;;;;;5.97;4.43;;;14.30;62.90;14.40;99869.00;;;;337027;28;96956;-92
2021/04/23 00:28:47;;;;;;;6.05;4.53;;;14.30;63.00;14.40;99867.00;;;;344383;28;84937;-89
2021/04/23 00:29:00;;;;;;;6.93;4.70;;;14.20;62.90;14.20;99859.00;;;;339324;28;95934;-90
2021/04/23 00:29:11;;;;;;;6.40;4.45;;;14.30;62.80;14.30;99875.00;;;;341426;28;84895;-90
2021/04/23 00:29:23;;;;;;;6.78;4.55;;;14.30;62.80;14.30;99869.00;;;;341690;28;97657;-89
2021/04/23 00:29:35;;;;;;;8.35;5.13;;;14.30;62.90;14.30;99875.00;;;;341653;28;84397;-89
2021/04/23 00:29:47;;;;;;;7.95;5.20;;;14.30;62.80;14.30;99865.00;;;;341044;28;95937;-89
2021/04/23 00:30:00;;;;;;;6.95;5.03;;;14.30;62.90;14.20;99862.00;;;;339626;28;83585;-89
2021/04/23 00:30:12;;;;;;;7.22;5.00;;;14.30;62.70;14.40;99873.00;;;;342284;28;94168;-89
2021/04/23 00:30:26;;;;;;;6.65;5.28;;;14.30;62.80;14.40;99863.00;;;;341692;28;83631;-90
2021/04/23 00:30:42;;;;;;;6.03;5.00;;;14.20;62.90;14.40;99874.00;;;;339726;28;96265;-89
2021/04/23 00:30:54;;;;;;;5.65;4.60;;;14.20;62.80;14.40;99871.00;;;;342962;28;83339;-89
2021/04/23 00:31:06;;;;;;;6.50;4.05;;;14.30;63.10;14.40;99877.00;;;;339606;28;96887;-90
2021/04/23 00:31:17;;;;;;;6.57;4.00;;;14.30;63.00;14.40;99870.00;;;;341725;28;83345;-89
2021/04/23 00:31:28;;;;;;;6.50;4.22;;;14.30;63.00;14.50;99867.00;;;;340786;28;97661;-89
2021/04/23 00:31:41;;;;;;;5.47;4.45;;;14.30;63.00;14.50;99869.00;;;;343081;28;84348;-89
2021/04/23 00:32:54;;;;;;;7.63;4.60;;;14.30;62.70;14.60;99876.00;;;;339415;28;96084;-89
2021/04/23 00:33:06;;;;;;;6.82;4.47;;;14.30;62.60;14.60;99870.00;;;;341743;28;83659;-90
2021/04/23 00:33:18;;;;;;;7.07;4.63;;;14.30;62.70;14.60;99869.00;;;;339661;28;97067;-89
2021/04/23 00:33:29;;;;;;;6.25;4.60;;;14.40;62.70;14.50;99869.00;;;;340098;28;84157;-89
2021/04/23 00:33:41;;;;;;;7.10;4.55;;;14.40;62.60;14.40;99868.00;;;;339592;28;97161;-90
2021/04/23 00:33:53;;;;;;;8.70;4.40;;;14.40;62.50;14.40;99871.00;;;;340356;28;83369;-89
2021/04/23 00:34:04;;;;;;;10.50;4.28;;;14.40;62.50;14.30;99867.00;;;;340798;28;98650;-89
2021/04/23 00:34:16;;;;;;;8.05;4.43;;;14.40;62.20;14.30;99870.00;;;;337785;28;83421;-90
2021/04/23 00:34:30;;;;;;;8.02;4.68;;;14.40;62.30;14.20;99865.00;;;;341071;28;95377;-89
2021/04/23 00:34:42;;;;;;;6.97;4.70;;;14.30;62.30;14.20;99874.00;;;;340326;28;83640;-89
2021/04/23 00:34:53;;;;;;;7.53;4.90;;;14.30;62.30;14.30;99872.00;;;;340884;28;97081;-89
2021/04/23 00:35:05;;;;;;;6.95;4.85;;;14.30;62.40;14.40;99873.00;;;;341375;28;83843;-89
2021/04/23 00:35:17;;;;;;;5.80;4.60;;;14.30;62.70;14.20;99874.00;;;;342253;28;96745;-89
2021/04/23 00:35:31;;;;;;;5.20;4.43;;;14.30;62.80;14.30;99866.00;;;;340014;28;85192;-90
2021/04/23 00:35:45;;;;;;;6.05;4.57;;;14.30;62.70;14.30;99871.00;;;;339754;28;94863;-88
2021/04/23 00:35:57;;;;;;;6.60;4.75;;;14.30;62.60;14.40;99872.00;;;;338859;28;85159;-89
2021/04/23 00:36:08;;;;;;;7.38;4.80;;;14.30;63.30;14.20;99870.00;;;;339170;28;98751;-89
2021/04/23 00:36:20;;;;;;;7.07;4.60;;;14.30;62.70;14.30;99861.00;;;;341694;28;84638;-89
2021/04/23 00:36:31;;;;;;;7.15;4.25;;;14.20;62.50;14.30;99871.00;;;;343723;28;95567;-89
2021/04/23 00:36:42;;;;;;;7.07;4.40;;;14.30;62.70;14.30;99867.00;;;;342992;28;83573;-90
2021/04/23 00:36:54;;;;;;;7.30;4.30;;;14.20;62.60;14.20;99865.00;;;;339466;28;95796;-88
2021/04/23 00:37:05;;;;;;;7.00;4.50;;;14.20;62.60;14.20;99868.00;;;;340320;28;83743;-89
2021/04/23 00:37:17;;;;;;;7.20;4.60;;;14.30;62.50;14.30;99862.00;;;;341083;28;93503;-90
2021/04/23 00:37:28;;;;;;;6.22;4.28;;;14.30;62.70;14.20;99868.00;;;;343069;28;83625;-89
2021/04/23 00:37:46;;;;;;;7.03;4.30;;;14.20;62.50;14.30;99870.00;;;;340836;28;96146;-89
2021/04/23 00:37:58;;;;;;;6.95;4.47;;;14.20;62.50;14.40;99876.00;;;;341121;28;83711;-90
2021/04/23 00:38:14;;;;;;;6.53;4.38;;;14.20;62.50;14.40;99873.00;;;;340134;28;96953;-90
2021/04/23 00:38:26;;;;;;;6.40;4.13;;;14.30;62.60;14.30;99867.00;;;;339696;28;85603;-89
2021/04/23 00:38:38;;;;;;;6.18;4.07;;;14.30;62.60;14.40;99870.00;;;;342134;28;95557;-89
2021/04/23 00:38:50;;;;;;;6.53;4.45;;;14.30;62.70;14.40;99868.00;;;;341521;28;83369;-89
2021/04/23 00:39:03;;;;;;;6.22;4.25;;;14.30;62.50;14.40;99877.00;;;;339427;28;95045;-89
2021/04/23 00:39:15;;;;;;;6.05;4.30;;;14.30;62.50;14.40;99869.00;;;;339025;28;83389;-89
2021/04/23 00:39:27;;;;;;;6.55;4.50;;;14.30;62.50;14.40;99869.00;;;;339535;28;95850;-89
2021/04/23 00:39:38;;;;;;;6.13;4.40;;;14.30;62.60;14.40;99873.00;;;;341502;28;83483;-89
2021/04/23 00:39:50;;;;;;;5.55;4.40;;;14.30;62.50;14.40;99874.00;;;;341068;28;95762;-89
2021/04/23 00:40:02;;;;;;;5.25;4.22;;;14.30;62.40;14.30;99869.00;;;;340176;28;84808;-89
2021/04/23 00:40:24;;;;;;;5.80;4.53;;;14.30;62.30;14.20;99869.00;;;;339408;28;97945;-89
2021/04/23 00:40:41;;;;;;;9.57;4.72;;;14.30;62.50;14.40;99872.00;;;;341417;28;84010;-89
2021/04/23 00:40:58;;;;;;;7.78;4.47;;;14.30;62.50;14.50;99869.00;;;;339682;28;96829;-90
2021/04/23 00:41:12;;;;;;;5.07;4.32;;;14.30;62.60;14.40;99873.00;;;;340894;28;84739;-89
2021/04/23 00:41:28;;;;;;;5.53;4.18;;;14.30;62.50;14.50;99877.00;;;;339476;28;97050;-89
2021/04/23 00:41:40;;;;;;;5.72;4.15;;;14.30;62.50;14.60;99866.00;;;;340339;28;84151;-89
2021/04/23 00:41:51;;;;;;;6.45;4.35;;;14.30;62.50;14.50;99868.00;;;;338306;28;97745;-89
2021/04/23 00:42:04;;;;;;;6.07;3.97;;;14.30;62.50;14.50;99869.00;;;;340346;28;83436;-89
2021/04/23 00:42:16;;;;;;;6.18;4.18;;;14.30;62.50;14.50;99871.00;;;;339711;28;94072;-89
2021/04/23 00:42:27;;;;;;;6.22;4.03;;;14.40;62.70;14.50;99862.00;;;;341605;28;83789;-90
2021/04/23 00:42:38;;;;;;;6.03;4.20;;;14.40;62.70;14.50;99866.00;;;;337994;28;97632;-90
2021/04/23 00:42:50;;;;;;;6.38;3.83;;;14.40;62.60;14.50;99871.00;;;;343049;28;84519;-89
2021/04/23 00:43:01;;;;;;;6.05;3.83;;;14.40;62.50;14.50;99868.00;;;;339652;28;97184;-89
2021/04/23 00:43:13;;;;;;;5.75;3.97;;;14.40;62.50;14.60;99866.00;;;;341669;28;83744;-89
2021/04/23 00:43:30;;;;;;;5.45;4.28;;;14.40;62.50;14.60;99863.00;;;;339645;28;93092;-89
2021/04/23 00:43:46;;;;;;;6.05;4.30;;;14.40;62.30;14.50;99874.00;;;;341651;28;84975;-89
2021/04/23 00:43:58;;;;;;;6.03;4.28;;;14.40;62.20;14.50;99875.00;;;;341163;28;97053;-89
2021/04/23 00:44:09;;;;;;;6.68;4.18;;;14.40;62.20;14.50;99872.00;;;;338733;28;83702;-89
2021/04/23 00:44:21;;;;;;;7.65;4.35;;;14.40;62.30;14.40;99866.00;;;;339739;28;94389;-89
2021/04/23 00:44:32;;;;;;;6.40;4.10;;;14.40;62.30;14.40;99867.00;;;;338971;28;83641;-89
2021/04/23 00:44:44;;;;;;;5.18;4.13;;;14.40;62.20;14.50;99875.00;;;;338357;28;95368;-89
2021/04/23 00:44:55;;;;;;;4.97;4.32;;;14.40;62.30;14.60;99863.00;;;;339600;28;82488;-89
2021/04/23 00:45:08;;;;;;;5.65;4.35;;;14.40;62.50;14.60;99867.00;;;;339546;28;96888;-88
2021/04/23 00:45:21;;;;;;;5.43;4.20;;;14.40;62.60;14.60;99876.00;;;;341724;28;83426;-90
2021/04/23 00:45:33;;;;;;;7.30;4.70;;;14.40;62.70;14.60;99873.00;;;;340989;28;94127;-89
2021/04/23 00:45:44;;;;;;;7.38;4.90;;;14.40;62.70;14.40;99870.00;;;;340182;28;84955;-89
2021/04/23 00:45:56;;;;;;;7.38;4.90;;;14.40;62.60;14.30;99864.00;;;;341131;28;94414;-90
2021/04/23 00:46:08;;;;;;;6.85;4.28;;;14.40;62.60;14.30;99866.00;;;;342908;28;83707;-89
2021/04/23 00:46:20;;;;;;;6.53;4.28;;;14.30;62.30;14.40;99868.00;;;;339687;28;94288;-89
2021/04/23 00:46:33;;;;;;;6.40;3.88;;;14.30;62.40;14.50;99868.00;;;;341757;28;84111;-89
2021/04/23 00:46:44;;;;;;;5.95;4.18;;;14.40;62.60;14.40;99877.00;;;;340806;28;98353;-89
2021/04/23 00:46:56;;;;;;;5.25;4.20;;;14.40;62.50;14.30;99862.00;;;;339764;28;83227;-89
2021/04/23 00:47:08;;;;;;;4.65;4.13;;;14.40;63.10;14.20;99874.00;;;;339489;28;96654;-89
2021/04/23 00:47:19;;;;;;;5.25;4.13;;;14.40;62.20;14.30;99875.00;;;;344168;28;84017;-89
2021/04/23 00:47:31;;;;;;;6.40;4.32;;;14.30;62.20;14.40;99868.00;;;;339637;28;97543;-89
2021/04/23 00:47:49;;;;;;;6.90;4.30;;;14.40;62.60;14.40;99873.00;;;;341524;28;83491;-89
2021/04/23 00:48:04;;;;;;;6.47;4.30;;;14.40;62.50;14.40;99866.00;;;;340963;28;97012;-89
2021/04/23 00:48:15;;;;;;;7.00;4.32;;;14.30;62.30;14.50;99864.00;;;;340105;28;85017;-89
2021/04/23 00:48:28;;;;;;;6.07;4.55;;;14.30;62.00;14.50;99877.00;;;;339674;28;96669;-89
2021/04/23 00:48:46;;;;;;;6.57;4.95;;;14.30;61.90;14.40;99865.00;;;;341677;28;83752;-89
2021/04/23 00:49:00;;;;;;;6.88;4.47;;;14.30;62.00;14.50;99870.00;;;;339554;28;98211;-89
2021/04/23 00:49:11;;;;;;;6.15;4.07;;;14.30;62.10;14.40;99875.00;;;;341476;28;85271;-90
2021/04/23 00:49:23;;;;;;;5.43;3.85;;;14.40;62.20;14.30;99873.00;;;;340925;28;96920;-89
2021/04/23 00:49:34;;;;;;;5.53;3.80;;;14.40;62.20;14.40;99871.00;;;;341611;28;84153;-89
2021/04/23 00:49:51;;;;;;;5.38;3.67;;;14.30;62.30;14.50;99873.00;;;;341869;28;96211;-89
2021/04/23 00:50:03;;;;;;;6.47;3.88;;;14.40;62.30;14.30;99877.00;;;;341994;28;83650;-89
2021/04/23 00:50:31;;;;;;;6.45;4.00;;;14.40;62.40;14.40;99877.00;;;;339288;28;95730;-89
2021/04/23 00:50:51;;;;;;;5.88;4.72;;;14.40;62.50;14.40;99872.00;;;;337659;28;84873;-90
2021/04/23 00:51:05;;;;;;;5.72;4.10;;;14.40;62.30;14.40;99879.00;;;;339543;28;97038;-90
2021/04/23 00:51:32;;;;;;;8.50;4.22;;;14.40;62.20;14.50;99877.00;;;;340057;28;82830;-89
2021/04/23 00:51:56;;;;;;;8.27;4.40;;;14.40;62.30;14.30;99873.00;;;;340886;28;98466;-89
2021/04/23 00:52:07;;;;;;;9.20;3.83;;;14.40;62.10;14.30;99871.00;;;;340397;28;83285;-90
2021/04/23 00:52:18;;;;;;;7.97;3.78;;;14.30;62.30;14.30;99865.00;;;;339552;28;96151;-89
2021/04/23 00:52:30;;;;;;;7.88;4.00;;;14.30;62.40;14.40;99868.00;;;;343148;28;84526;-89
2021/04/23 00:52:41;;;;;;;5.35;4.28;;;14.40;62.50;14.20;99864.00;;;;342332;28;97646;-89
2021/04/23 00:52:53;;;;;;;6.05;4.30;;;14.40;62.20;14.30;99866.00;;;;341984;28;84426;-89
2021/04/23 00:53:05;;;;;;;6.24;4.30;;;14.40;62.00;14.40;99864.00;;;;339494;28;94751;-89
2021/04/23 00:53:27;;;;;;;5.30;3.90;;;14.40;62.00;14.50;99868.00;;;;339061;28;83746;-89
2021/04/23 00:53:40;;;;;;;5.55;3.92;;;14.40;62.00;14.50;99866.00;;;;339755;28;93603;-90
2021/04/23 00:53:52;;;;;;;5.65;3.88;;;14.40;62.00;14.50;99867.00;;;;339070;28;84740;-89
2021/04/23 00:54:04;;;;;;;5.40;3.78;;;14.40;62.10;14.50;99869.00;;;;342375;28;98301;-89
2021/04/23 00:54:16;;;;;;;7.78;4.10;;;14.40;62.20;14.50;99871.00;;;;341730;28;83622;-89
2021/04/23 00:54:28;;;;;;;8.32;4.10;;;14.40;62.00;14.50;99865.00;;;;342316;28;97524;-89
2021/04/23 00:54:39;;;;;;;7.10;4.18;;;14.40;62.10;14.50;99875.00;;;;343014;28;84773;-89
2021/04/23 00:54:51;;;;;;;6.20;4.30;;;14.40;62.10;14.60;99867.00;;;;339570;28;95786;-89
2021/04/23 00:55:04;;;;;;;5.47;4.43;;;14.40;62.10;14.60;99874.00;;;;340405;28;85353;-89
2021/04/23 00:55:16;;;;;;;5.60;4.10;;;14.40;62.10;14.50;99870.00;;;;341069;28;93080;-90
2021/04/23 00:55:27;;;;;;;7.68;4.20;;;14.40;62.10;14.60;99871.00;;;;340296;28;85012;-90
2021/04/23 00:55:39;;;;;;;9.23;4.35;;;14.40;62.20;14.60;99868.00;;;;339541;28;96862;-89
2021/04/23 00:55:51;;;;;;;8.65;4.53;;;14.40;62.20;14.60;99864.00;;;;342610;28;84776;-89
2021/04/23 00:56:08;;;;;;;6.78;4.28;;;14.40;62.30;14.70;99868.00;;;;340759;28;97732;-90
2021/04/23 00:56:25;;;;;;;5.32;3.63;;;14.40;62.20;14.70;99867.00;;;;338924;28;85094;-89
2021/04/23 00:56:39;;;;;;;4.97;3.30;;;14.50;62.30;14.60;99872.00;;;;339654;28;96915;-89
2021/04/23 00:56:50;;;;;;;6.15;3.80;;;14.50;62.00;14.70;99878.00;;;;341684;28;82477;-89
2021/04/23 00:57:03;;;;;;;6.72;3.92;;;14.50;61.90;14.50;99874.00;;;;341072;28;96321;-90
2021/04/23 00:57:15;;;;;;;5.78;3.92;;;14.50;61.80;14.50;99869.00;;;;340485;28;83308;-89
2021/04/23 00:57:26;;;;;;;5.07;3.95;;;14.50;61.60;14.50;99874.00;;;;339758;28;94323;-89
2021/04/23 00:57:38;;;;;;;6.28;4.07;;;14.40;61.50;14.40;99878.00;;;;341740;28;83706;-87
2021/04/23 00:57:49;;;;;;;6.60;3.83;;;14.40;61.50;14.50;99875.00;;;;340989;28;96754;-90
2021/04/23 00:58:01;;;;;;;6.82;3.80;;;14.40;61.80;14.60;99870.00;;;;340373;28;84234;-90
2021/04/23 00:58:21;;;;;;;5.75;3.83;;;14.40;61.90;14.60;99869.00;;;;337947;28;98334;-89
2021/04/23 00:58:33;;;;;;;10.48;4.38;;;14.40;61.90;14.70;99864.00;;;;340332;28;84000;-89
2021/04/23 00:58:45;;;;;;;8.88;4.20;;;14.50;61.80;14.60;99881.00;;;;339521;28;95936;-90
2021/04/23 00:59:00;;;;;;;8.18;4.15;;;14.50;62.40;14.70;99873.00;;;;339664;28;83700;-90
2021/04/23 00:59:12;;;;;;;7.35;3.95;;;14.50;61.80;14.70;99873.00;;;;342406;28;94288;-88
2021/04/23 00:59:23;;;;;;;7.10;3.95;;;14.50;61.90;14.60;99880.00;;;;340607;28;85463;-88
2021/04/23 00:59:35;;;;;;;7.60;4.20;;;14.50;61.80;14.60;99879.00;;;;340956;28;93407;-90
2021/04/23 00:59:46;;;;;;;6.90;4.07;;;14.50;61.70;14.50;99887.00;;;;340092;28;84834;-89
2021/04/23 00:59:58;;;;;;;7.53;3.78;;;14.50;61.70;14.50;99881.00;;;;339719;28;94489;-89
2021/04/23 01:00:11;;;;;;;7.03;3.90;;;14.50;61.80;14.60;99874.00;;;;340272;28;84929;-90
2021/04/23 01:00:23;;;;;;;4.80;3.60;;;14.50;62.10;14.60;99881.00;;;;338183;28;96707;-89